sensor_id;sensor_type;location;lat;lon;timestamp;P1;durP1;ratioP1;P2;durP2;ratioP2
21837;SDS011;11081;45.946;6.140;2023-05-13T00:00:57;3.33;;;1.77;;
21837;SDS011;11081;45.946;6.140;2023-05-13T00:03:25;4.60;;;1.80;;
21837;SDS011;11081;45.946;6.140;2023-05-13T00:05:54;2.63;;;1.70;;
21837;SDS011;11081;45.946;6.140;2023-05-13T00:08:22;2.85;;;2.10;;
21837;SDS011;11081;45.946;6.140;2023-05-13T00:10:50;5.32;;;1.98;;
21837;SDS011;11081;45.946;6.140;2023-05-13T00:13:19;2.75;;;1.98;;
21837;SDS011;11081;45.946;6.140;2023-05-13T00:15:47;3.10;;;1.77;;
21837;SDS011;11081;45.946;6.140;2023-05-13T00:18:15;6.07;;;1.90;;
21837;SDS011;11081;45.946;6.140;2023-05-13T00:20:43;5.65;;;2.00;;
21837;SDS011;11081;45.946;6.140;2023-05-13T00:23:11;3.80;;;1.90;;
21837;SDS011;11081;45.946;6.140;2023-05-13T00:25:39;3.20;;;2.03;;
21837;SDS011;11081;45.946;6.140;2023-05-13T00:28:09;3.45;;;1.90;;
21837;SDS011;11081;45.946;6.140;2023-05-13T00:30:40;2.28;;;1.80;;
21837;SDS011;11081;45.946;6.140;2023-05-13T00:33:10;2.17;;;1.73;;
21837;SDS011;11081;45.946;6.140;2023-05-13T00:35:38;5.40;;;1.98;;
21837;SDS011;11081;45.946;6.140;2023-05-13T00:38:07;5.10;;;2.00;;
21837;SDS011;11081;45.946;6.140;2023-05-13T00:40:35;3.67;;;1.83;;
21837;SDS011;11081;45.946;6.140;2023-05-13T00:43:04;2.83;;;1.77;;
21837;SDS011;11081;45.946;6.140;2023-05-13T00:45:34;3.22;;;1.90;;
21837;SDS011;11081;45.946;6.140;2023-05-13T00:48:05;3.65;;;1.85;;
21837;SDS011;11081;45.946;6.140;2023-05-13T00:50:34;6.53;;;2.10;;
21837;SDS011;11081;45.946;6.140;2023-05-13T00:53:03;5.88;;;2.08;;
21837;SDS011;11081;45.946;6.140;2023-05-13T00:55:31;3.10;;;1.92;;
21837;SDS011;11081;45.946;6.140;2023-05-13T00:57:59;5.60;;;1.92;;
21837;SDS011;11081;45.946;6.140;2023-05-13T01:00:27;7.53;;;2.60;;
21837;SDS011;11081;45.946;6.140;2023-05-13T01:02:59;3.00;;;1.90;;
21837;SDS011;11081;45.946;6.140;2023-05-13T01:05:37;4.38;;;2.10;;
21837;SDS011;11081;45.946;6.140;2023-05-13T01:08:13;5.22;;;2.22;;
21837;SDS011;11081;45.946;6.140;2023-05-13T01:10:50;4.82;;;2.10;;
21837;SDS011;11081;45.946;6.140;2023-05-13T01:13:25;5.70;;;2.17;;
21837;SDS011;11081;45.946;6.140;2023-05-13T01:16:06;2.80;;;1.98;;
21837;SDS011;11081;45.946;6.140;2023-05-13T01:18:39;4.40;;;2.25;;
21837;SDS011;11081;45.946;6.140;2023-05-13T01:21:12;3.03;;;1.95;;
21837;SDS011;11081;45.946;6.140;2023-05-13T01:23:43;3.00;;;2.05;;
21837;SDS011;11081;45.946;6.140;2023-05-13T01:26:11;4.78;;;2.38;;
21837;SDS011;11081;45.946;6.140;2023-05-13T01:28:39;9.82;;;2.05;;
21837;SDS011;11081;45.946;6.140;2023-05-13T01:31:07;4.82;;;2.08;;
21837;SDS011;11081;45.946;6.140;2023-05-13T01:33:36;5.97;;;2.03;;
21837;SDS011;11081;45.946;6.140;2023-05-13T01:36:05;5.82;;;2.13;;
21837;SDS011;11081;45.946;6.140;2023-05-13T01:38:34;4.03;;;2.10;;
21837;SDS011;11081;45.946;6.140;2023-05-13T01:41:05;2.88;;;2.00;;
21837;SDS011;11081;45.946;6.140;2023-05-13T01:43:34;3.05;;;2.20;;
21837;SDS011;11081;45.946;6.140;2023-05-13T01:46:03;5.28;;;2.10;;
21837;SDS011;11081;45.946;6.140;2023-05-13T01:48:38;5.22;;;1.92;;
21837;SDS011;11081;45.946;6.140;2023-05-13T01:51:06;4.95;;;2.13;;
21837;SDS011;11081;45.946;6.140;2023-05-13T01:53:34;2.53;;;2.03;;
21837;SDS011;11081;45.946;6.140;2023-05-13T01:56:02;3.08;;;1.85;;
21837;SDS011;11081;45.946;6.140;2023-05-13T01:58:32;2.58;;;2.00;;
21837;SDS011;11081;45.946;6.140;2023-05-13T02:01:00;3.38;;;1.70;;
21837;SDS011;11081;45.946;6.140;2023-05-13T02:03:29;5.35;;;2.10;;
21837;SDS011;11081;45.946;6.140;2023-05-13T02:05:57;3.78;;;2.28;;
21837;SDS011;11081;45.946;6.140;2023-05-13T02:08:25;3.00;;;2.10;;
21837;SDS011;11081;45.946;6.140;2023-05-13T02:10:53;5.97;;;2.30;;
21837;SDS011;11081;45.946;6.140;2023-05-13T02:13:22;4.35;;;2.15;;
21837;SDS011;11081;45.946;6.140;2023-05-13T02:15:51;5.40;;;2.28;;
21837;SDS011;11081;45.946;6.140;2023-05-13T02:18:20;6.85;;;2.20;;
21837;SDS011;11081;45.946;6.140;2023-05-13T02:20:48;7.70;;;2.35;;
21837;SDS011;11081;45.946;6.140;2023-05-13T02:23:16;5.10;;;2.40;;
21837;SDS011;11081;45.946;6.140;2023-05-13T02:25:44;8.55;;;2.40;;
21837;SDS011;11081;45.946;6.140;2023-05-13T02:28:12;4.47;;;2.25;;
21837;SDS011;11081;45.946;6.140;2023-05-13T02:30:40;5.85;;;2.50;;
21837;SDS011;11081;45.946;6.140;2023-05-13T02:33:09;5.63;;;2.60;;
21837;SDS011;11081;45.946;6.140;2023-05-13T02:35:37;3.60;;;2.63;;
21837;SDS011;11081;45.946;6.140;2023-05-13T02:38:07;5.97;;;2.38;;
21837;SDS011;11081;45.946;6.140;2023-05-13T02:40:36;8.45;;;2.17;;
21837;SDS011;11081;45.946;6.140;2023-05-13T02:43:05;4.30;;;2.67;;
21837;SDS011;11081;45.946;6.140;2023-05-13T02:45:49;5.20;;;2.17;;
21837;SDS011;11081;45.946;6.140;2023-05-13T02:48:19;4.82;;;2.30;;
21837;SDS011;11081;45.946;6.140;2023-05-13T02:50:47;6.97;;;2.10;;
21837;SDS011;11081;45.946;6.140;2023-05-13T02:53:15;5.47;;;2.20;;
21837;SDS011;11081;45.946;6.140;2023-05-13T02:55:49;3.28;;;2.17;;
21837;SDS011;11081;45.946;6.140;2023-05-13T02:58:17;2.25;;;1.85;;
21837;SDS011;11081;45.946;6.140;2023-05-13T03:00:46;3.42;;;1.95;;
21837;SDS011;11081;45.946;6.140;2023-05-13T03:03:14;3.95;;;2.20;;
21837;SDS011;11081;45.946;6.140;2023-05-13T03:05:44;3.42;;;2.38;;
21837;SDS011;11081;45.946;6.140;2023-05-13T03:08:12;5.00;;;2.22;;
21837;SDS011;11081;45.946;6.140;2023-05-13T03:10:40;3.38;;;2.58;;
21837;SDS011;11081;45.946;6.140;2023-05-13T03:13:07;4.45;;;2.10;;
21837;SDS011;11081;45.946;6.140;2023-05-13T03:15:35;6.25;;;2.47;;
21837;SDS011;11081;45.946;6.140;2023-05-13T03:18:04;5.22;;;2.45;;
21837;SDS011;11081;45.946;6.140;2023-05-13T03:20:32;5.72;;;2.58;;
21837;SDS011;11081;45.946;6.140;2023-05-13T03:23:03;4.05;;;2.22;;
21837;SDS011;11081;45.946;6.140;2023-05-13T03:25:32;4.53;;;2.70;;
21837;SDS011;11081;45.946;6.140;2023-05-13T03:28:02;3.28;;;2.25;;
21837;SDS011;11081;45.946;6.140;2023-05-13T03:30:35;4.90;;;2.35;;
21837;SDS011;11081;45.946;6.140;2023-05-13T03:33:08;3.20;;;2.63;;
21837;SDS011;11081;45.946;6.140;2023-05-13T03:35:36;6.32;;;2.45;;
21837;SDS011;11081;45.946;6.140;2023-05-13T03:38:06;4.28;;;2.92;;
21837;SDS011;11081;45.946;6.140;2023-05-13T03:40:39;3.85;;;2.53;;
21837;SDS011;11081;45.946;6.140;2023-05-13T03:43:07;5.22;;;2.88;;
21837;SDS011;11081;45.946;6.140;2023-05-13T03:45:38;6.28;;;2.70;;
21837;SDS011;11081;45.946;6.140;2023-05-13T03:48:13;4.18;;;2.50;;
21837;SDS011;11081;45.946;6.140;2023-05-13T03:50:41;4.05;;;2.47;;
21837;SDS011;11081;45.946;6.140;2023-05-13T03:53:11;9.40;;;3.00;;
21837;SDS011;11081;45.946;6.140;2023-05-13T03:55:40;6.15;;;2.65;;
21837;SDS011;11081;45.946;6.140;2023-05-13T03:58:12;5.45;;;3.40;;
21837;SDS011;11081;45.946;6.140;2023-05-13T04:00:41;4.78;;;2.80;;
21837;SDS011;11081;45.946;6.140;2023-05-13T04:03:12;5.32;;;2.63;;
21837;SDS011;11081;45.946;6.140;2023-05-13T04:05:41;3.92;;;2.70;;
21837;SDS011;11081;45.946;6.140;2023-05-13T04:08:11;8.15;;;2.72;;
21837;SDS011;11081;45.946;6.140;2023-05-13T04:10:41;9.60;;;3.35;;
21837;SDS011;11081;45.946;6.140;2023-05-13T04:13:09;7.35;;;3.13;;
21837;SDS011;11081;45.946;6.140;2023-05-13T04:15:37;4.88;;;2.83;;
21837;SDS011;11081;45.946;6.140;2023-05-13T04:18:05;4.45;;;2.65;;
21837;SDS011;11081;45.946;6.140;2023-05-13T04:20:36;4.65;;;2.40;;
21837;SDS011;11081;45.946;6.140;2023-05-13T04:23:04;3.53;;;2.60;;
21837;SDS011;11081;45.946;6.140;2023-05-13T04:25:34;7.03;;;3.05;;
21837;SDS011;11081;45.946;6.140;2023-05-13T04:28:03;5.88;;;2.60;;
21837;SDS011;11081;45.946;6.140;2023-05-13T04:30:37;4.47;;;2.50;;
21837;SDS011;11081;45.946;6.140;2023-05-13T04:33:05;8.40;;;2.78;;
21837;SDS011;11081;45.946;6.140;2023-05-13T04:35:35;5.72;;;3.00;;
21837;SDS011;11081;45.946;6.140;2023-05-13T04:38:03;4.10;;;2.55;;
21837;SDS011;11081;45.946;6.140;2023-05-13T04:40:31;3.88;;;2.75;;
21837;SDS011;11081;45.946;6.140;2023-05-13T04:43:06;5.30;;;2.85;;
21837;SDS011;11081;45.946;6.140;2023-05-13T04:45:41;5.40;;;2.33;;
21837;SDS011;11081;45.946;6.140;2023-05-13T04:48:11;5.53;;;2.85;;
21837;SDS011;11081;45.946;6.140;2023-05-13T04:50:43;6.70;;;3.17;;
21837;SDS011;11081;45.946;6.140;2023-05-13T04:53:13;3.78;;;2.58;;
21837;SDS011;11081;45.946;6.140;2023-05-13T04:55:43;6.05;;;3.08;;
21837;SDS011;11081;45.946;6.140;2023-05-13T04:58:14;9.05;;;2.50;;
21837;SDS011;11081;45.946;6.140;2023-05-13T05:00:43;5.70;;;2.60;;
21837;SDS011;11081;45.946;6.140;2023-05-13T05:03:11;3.50;;;2.30;;
21837;SDS011;11081;45.946;6.140;2023-05-13T05:05:40;4.57;;;2.72;;
21837;SDS011;11081;45.946;6.140;2023-05-13T05:08:09;5.85;;;2.78;;
21837;SDS011;11081;45.946;6.140;2023-05-13T05:10:37;5.88;;;2.78;;
21837;SDS011;11081;45.946;6.140;2023-05-13T05:13:07;6.50;;;2.55;;
21837;SDS011;11081;45.946;6.140;2023-05-13T05:15:37;5.57;;;2.90;;
21837;SDS011;11081;45.946;6.140;2023-05-13T05:18:06;5.47;;;2.83;;
21837;SDS011;11081;45.946;6.140;2023-05-13T05:20:37;6.85;;;2.70;;
21837;SDS011;11081;45.946;6.140;2023-05-13T05:23:11;7.13;;;3.20;;
21837;SDS011;11081;45.946;6.140;2023-05-13T05:25:40;8.15;;;3.03;;
21837;SDS011;11081;45.946;6.140;2023-05-13T05:28:07;7.07;;;3.30;;
21837;SDS011;11081;45.946;6.140;2023-05-13T05:30:40;4.85;;;3.20;;
21837;SDS011;11081;45.946;6.140;2023-05-13T05:33:19;6.45;;;3.10;;
21837;SDS011;11081;45.946;6.140;2023-05-13T05:35:49;9.02;;;3.50;;
21837;SDS011;11081;45.946;6.140;2023-05-13T05:38:19;4.47;;;2.90;;
21837;SDS011;11081;45.946;6.140;2023-05-13T05:40:50;4.03;;;2.72;;
21837;SDS011;11081;45.946;6.140;2023-05-13T05:43:18;5.82;;;3.30;;
21837;SDS011;11081;45.946;6.140;2023-05-13T05:45:47;5.47;;;3.45;;
21837;SDS011;11081;45.946;6.140;2023-05-13T05:48:17;4.88;;;3.15;;
21837;SDS011;11081;45.946;6.140;2023-05-13T05:50:45;6.03;;;3.65;;
21837;SDS011;11081;45.946;6.140;2023-05-13T05:53:21;6.43;;;3.10;;
21837;SDS011;11081;45.946;6.140;2023-05-13T05:55:49;3.47;;;2.30;;
21837;SDS011;11081;45.946;6.140;2023-05-13T05:58:19;4.38;;;2.28;;
21837;SDS011;11081;45.946;6.140;2023-05-13T06:00:48;4.50;;;2.10;;
21837;SDS011;11081;45.946;6.140;2023-05-13T06:03:16;4.72;;;2.40;;
21837;SDS011;11081;45.946;6.140;2023-05-13T06:05:45;4.95;;;2.58;;
21837;SDS011;11081;45.946;6.140;2023-05-13T06:08:13;3.92;;;2.78;;
21837;SDS011;11081;45.946;6.140;2023-05-13T06:10:41;3.75;;;2.60;;
21837;SDS011;11081;45.946;6.140;2023-05-13T06:13:09;4.25;;;2.67;;
21837;SDS011;11081;45.946;6.140;2023-05-13T06:15:37;5.32;;;2.50;;
21837;SDS011;11081;45.946;6.140;2023-05-13T06:18:07;3.35;;;2.72;;
21837;SDS011;11081;45.946;6.140;2023-05-13T06:20:35;8.00;;;3.00;;
21837;SDS011;11081;45.946;6.140;2023-05-13T06:23:03;5.03;;;3.00;;
21837;SDS011;11081;45.946;6.140;2023-05-13T06:25:31;5.55;;;3.40;;
21837;SDS011;11081;45.946;6.140;2023-05-13T06:27:59;5.22;;;3.22;;
21837;SDS011;11081;45.946;6.140;2023-05-13T06:30:28;4.88;;;2.97;;
21837;SDS011;11081;45.946;6.140;2023-05-13T06:32:56;5.95;;;3.40;;
21837;SDS011;11081;45.946;6.140;2023-05-13T06:35:30;7.80;;;4.75;;
21837;SDS011;11081;45.946;6.140;2023-05-13T06:38:00;5.53;;;4.32;;
21837;SDS011;11081;45.946;6.140;2023-05-13T06:40:28;6.47;;;5.03;;
21837;SDS011;11081;45.946;6.140;2023-05-13T06:42:56;7.78;;;4.75;;
21837;SDS011;11081;45.946;6.140;2023-05-13T06:45:29;5.38;;;4.40;;
21837;SDS011;11081;45.946;6.140;2023-05-13T06:47:58;9.43;;;4.72;;
21837;SDS011;11081;45.946;6.140;2023-05-13T06:50:25;5.85;;;4.20;;
21837;SDS011;11081;45.946;6.140;2023-05-13T06:52:55;5.68;;;3.92;;
21837;SDS011;11081;45.946;6.140;2023-05-13T06:55:24;6.85;;;4.30;;
21837;SDS011;11081;45.946;6.140;2023-05-13T06:57:52;6.18;;;4.60;;
21837;SDS011;11081;45.946;6.140;2023-05-13T07:00:20;8.10;;;4.68;;
21837;SDS011;11081;45.946;6.140;2023-05-13T07:02:49;6.28;;;4.50;;
21837;SDS011;11081;45.946;6.140;2023-05-13T07:05:17;7.70;;;5.03;;
21837;SDS011;11081;45.946;6.140;2023-05-13T07:07:45;7.80;;;5.03;;
21837;SDS011;11081;45.946;6.140;2023-05-13T07:10:14;11.90;;;5.40;;
21837;SDS011;11081;45.946;6.140;2023-05-13T07:12:42;7.43;;;4.90;;
21837;SDS011;11081;45.946;6.140;2023-05-13T07:15:10;6.80;;;4.93;;
21837;SDS011;11081;45.946;6.140;2023-05-13T07:17:38;7.18;;;5.30;;
21837;SDS011;11081;45.946;6.140;2023-05-13T07:20:07;7.30;;;5.25;;
21837;SDS011;11081;45.946;6.140;2023-05-13T07:22:35;9.02;;;5.13;;
21837;SDS011;11081;45.946;6.140;2023-05-13T07:25:03;4.35;;;3.22;;
21837;SDS011;11081;45.946;6.140;2023-05-13T07:27:33;6.90;;;4.85;;
21837;SDS011;11081;45.946;6.140;2023-05-13T07:30:01;9.73;;;3.90;;
21837;SDS011;11081;45.946;6.140;2023-05-13T07:32:29;7.68;;;4.32;;
21837;SDS011;11081;45.946;6.140;2023-05-13T07:34:57;8.57;;;4.65;;
21837;SDS011;11081;45.946;6.140;2023-05-13T07:37:25;8.52;;;4.15;;
21837;SDS011;11081;45.946;6.140;2023-05-13T07:39:53;6.97;;;4.63;;
21837;SDS011;11081;45.946;6.140;2023-05-13T07:42:21;6.15;;;5.13;;
21837;SDS011;11081;45.946;6.140;2023-05-13T07:44:51;8.85;;;4.70;;
21837;SDS011;11081;45.946;6.140;2023-05-13T07:47:19;7.07;;;4.88;;
21837;SDS011;11081;45.946;6.140;2023-05-13T07:49:47;5.68;;;4.70;;
21837;SDS011;11081;45.946;6.140;2023-05-13T07:52:15;6.50;;;4.80;;
21837;SDS011;11081;45.946;6.140;2023-05-13T07:54:43;6.55;;;5.15;;
21837;SDS011;11081;45.946;6.140;2023-05-13T07:57:11;8.10;;;5.72;;
21837;SDS011;11081;45.946;6.140;2023-05-13T07:59:39;7.88;;;5.35;;
21837;SDS011;11081;45.946;6.140;2023-05-13T08:02:11;10.63;;;5.65;;
21837;SDS011;11081;45.946;6.140;2023-05-13T08:04:39;11.73;;;6.40;;
21837;SDS011;11081;45.946;6.140;2023-05-13T08:07:08;8.55;;;5.90;;
21837;SDS011;11081;45.946;6.140;2023-05-13T08:09:36;11.90;;;6.50;;
21837;SDS011;11081;45.946;6.140;2023-05-13T08:12:05;9.43;;;6.93;;
21837;SDS011;11081;45.946;6.140;2023-05-13T08:14:33;8.82;;;6.47;;
21837;SDS011;11081;45.946;6.140;2023-05-13T08:17:02;9.63;;;7.05;;
21837;SDS011;11081;45.946;6.140;2023-05-13T08:19:34;9.55;;;7.32;;
21837;SDS011;11081;45.946;6.140;2023-05-13T08:22:02;10.57;;;6.55;;
21837;SDS011;11081;45.946;6.140;2023-05-13T08:24:30;13.57;;;7.28;;
21837;SDS011;11081;45.946;6.140;2023-05-13T08:26:58;9.35;;;7.45;;
21837;SDS011;11081;45.946;6.140;2023-05-13T08:29:26;10.75;;;8.10;;
21837;SDS011;11081;45.946;6.140;2023-05-13T08:31:55;11.07;;;7.57;;
21837;SDS011;11081;45.946;6.140;2023-05-13T08:34:23;10.73;;;7.38;;
21837;SDS011;11081;45.946;6.140;2023-05-13T08:36:52;11.52;;;7.13;;
21837;SDS011;11081;45.946;6.140;2023-05-13T08:39:20;9.50;;;6.78;;
21837;SDS011;11081;45.946;6.140;2023-05-13T08:41:48;9.70;;;6.88;;
21837;SDS011;11081;45.946;6.140;2023-05-13T08:44:18;11.20;;;7.22;;
21837;SDS011;11081;45.946;6.140;2023-05-13T08:46:57;10.38;;;7.28;;
21837;SDS011;11081;45.946;6.140;2023-05-13T08:49:31;9.05;;;6.68;;
21837;SDS011;11081;45.946;6.140;2023-05-13T08:52:02;9.52;;;6.10;;
21837;SDS011;11081;45.946;6.140;2023-05-13T08:54:30;7.85;;;6.25;;
21837;SDS011;11081;45.946;6.140;2023-05-13T08:56:58;11.82;;;7.07;;
21837;SDS011;11081;45.946;6.140;2023-05-13T08:59:26;9.18;;;6.43;;
21837;SDS011;11081;45.946;6.140;2023-05-13T09:01:54;7.50;;;6.10;;
21837;SDS011;11081;45.946;6.140;2023-05-13T09:04:25;8.10;;;5.35;;
21837;SDS011;11081;45.946;6.140;2023-05-13T09:06:53;8.57;;;5.72;;
21837;SDS011;11081;45.946;6.140;2023-05-13T09:09:22;7.05;;;5.40;;
21837;SDS011;11081;45.946;6.140;2023-05-13T09:11:50;6.97;;;5.03;;
21837;SDS011;11081;45.946;6.140;2023-05-13T09:14:18;12.70;;;5.30;;
21837;SDS011;11081;45.946;6.140;2023-05-13T09:16:46;7.70;;;4.53;;
21837;SDS011;11081;45.946;6.140;2023-05-13T09:19:15;6.20;;;4.70;;
21837;SDS011;11081;45.946;6.140;2023-05-13T09:21:43;6.82;;;5.13;;
21837;SDS011;11081;45.946;6.140;2023-05-13T09:24:11;6.53;;;4.70;;
21837;SDS011;11081;45.946;6.140;2023-05-13T09:26:45;6.50;;;4.38;;
21837;SDS011;11081;45.946;6.140;2023-05-13T09:29:14;6.68;;;5.28;;
21837;SDS011;11081;45.946;6.140;2023-05-13T09:31:47;6.85;;;5.13;;
21837;SDS011;11081;45.946;6.140;2023-05-13T09:34:26;7.13;;;4.68;;
21837;SDS011;11081;45.946;6.140;2023-05-13T09:36:59;11.13;;;5.07;;
21837;SDS011;11081;45.946;6.140;2023-05-13T09:39:29;6.57;;;4.53;;
21837;SDS011;11081;45.946;6.140;2023-05-13T09:42:01;6.78;;;4.57;;
21837;SDS011;11081;45.946;6.140;2023-05-13T09:44:31;9.23;;;5.32;;
21837;SDS011;11081;45.946;6.140;2023-05-13T09:47:00;6.50;;;4.65;;
21837;SDS011;11081;45.946;6.140;2023-05-13T09:49:29;7.88;;;4.82;;
21837;SDS011;11081;45.946;6.140;2023-05-13T09:51:58;8.32;;;5.90;;
21837;SDS011;11081;45.946;6.140;2023-05-13T09:54:26;11.45;;;5.82;;
21837;SDS011;11081;45.946;6.140;2023-05-13T09:57:02;7.80;;;4.88;;
21837;SDS011;11081;45.946;6.140;2023-05-13T09:59:31;5.82;;;4.68;;
21837;SDS011;11081;45.946;6.140;2023-05-13T10:01:59;6.35;;;4.88;;
21837;SDS011;11081;45.946;6.140;2023-05-13T10:04:28;5.80;;;4.78;;
21837;SDS011;11081;45.946;6.140;2023-05-13T10:06:57;7.15;;;4.90;;
21837;SDS011;11081;45.946;6.140;2023-05-13T10:09:25;7.40;;;4.80;;
21837;SDS011;11081;45.946;6.140;2023-05-13T10:11:58;7.72;;;5.35;;
21837;SDS011;11081;45.946;6.140;2023-05-13T10:14:27;9.85;;;4.82;;
21837;SDS011;11081;45.946;6.140;2023-05-13T10:16:56;6.03;;;4.90;;
21837;SDS011;11081;45.946;6.140;2023-05-13T10:19:25;8.23;;;4.82;;
21837;SDS011;11081;45.946;6.140;2023-05-13T10:21:55;8.70;;;5.40;;
21837;SDS011;11081;45.946;6.140;2023-05-13T10:24:23;7.72;;;4.95;;
21837;SDS011;11081;45.946;6.140;2023-05-13T10:26:54;7.57;;;4.55;;
21837;SDS011;11081;45.946;6.140;2023-05-13T10:29:24;9.05;;;5.13;;
21837;SDS011;11081;45.946;6.140;2023-05-13T10:31:54;6.43;;;4.43;;
21837;SDS011;11081;45.946;6.140;2023-05-13T10:34:23;5.43;;;4.40;;
21837;SDS011;11081;45.946;6.140;2023-05-13T10:36:57;7.15;;;5.00;;
21837;SDS011;11081;45.946;6.140;2023-05-13T10:39:47;7.03;;;4.82;;
21837;SDS011;11081;45.946;6.140;2023-05-13T10:42:39;7.28;;;5.00;;
21837;SDS011;11081;45.946;6.140;2023-05-13T10:45:08;8.30;;;5.20;;
21837;SDS011;11081;45.946;6.140;2023-05-13T10:47:38;6.60;;;4.85;;
21837;SDS011;11081;45.946;6.140;2023-05-13T10:50:07;7.05;;;4.93;;
21837;SDS011;11081;45.946;6.140;2023-05-13T10:52:49;5.65;;;4.20;;
21837;SDS011;11081;45.946;6.140;2023-05-13T10:55:21;6.05;;;4.78;;
21837;SDS011;11081;45.946;6.140;2023-05-13T11:00:38;5.93;;;4.07;;
21837;SDS011;11081;45.946;6.140;2023-05-13T11:03:12;8.73;;;4.53;;
21837;SDS011;11081;45.946;6.140;2023-05-13T11:05:45;5.75;;;4.35;;
21837;SDS011;11081;45.946;6.140;2023-05-13T11:08:32;5.97;;;4.07;;
21837;SDS011;11081;45.946;6.140;2023-05-13T11:11:15;5.40;;;4.13;;
21837;SDS011;11081;45.946;6.140;2023-05-13T11:13:44;4.63;;;3.60;;
21837;SDS011;11081;45.946;6.140;2023-05-13T11:16:12;5.85;;;4.00;;
21837;SDS011;11081;45.946;6.140;2023-05-13T11:18:41;4.70;;;3.88;;
21837;SDS011;11081;45.946;6.140;2023-05-13T11:21:10;7.55;;;3.90;;
21837;SDS011;11081;45.946;6.140;2023-05-13T11:23:50;8.02;;;4.32;;
21837;SDS011;11081;45.946;6.140;2023-05-13T11:26:20;4.32;;;3.60;;
21837;SDS011;11081;45.946;6.140;2023-05-13T11:28:58;5.82;;;4.30;;
21837;SDS011;11081;45.946;6.140;2023-05-13T11:31:27;4.68;;;3.70;;
21837;SDS011;11081;45.946;6.140;2023-05-13T11:34:06;4.90;;;3.90;;
21837;SDS011;11081;45.946;6.140;2023-05-13T11:36:39;4.20;;;3.55;;
21837;SDS011;11081;45.946;6.140;2023-05-13T11:39:09;7.55;;;4.85;;
21837;SDS011;11081;45.946;6.140;2023-05-13T11:41:40;10.35;;;6.95;;
21837;SDS011;11081;45.946;6.140;2023-05-13T11:44:10;8.10;;;6.22;;
21837;SDS011;11081;45.946;6.140;2023-05-13T11:46:48;7.75;;;6.07;;
21837;SDS011;11081;45.946;6.140;2023-05-13T11:49:34;7.22;;;4.70;;
21837;SDS011;11081;45.946;6.140;2023-05-13T11:52:05;4.95;;;3.95;;
21837;SDS011;11081;45.946;6.140;2023-05-13T11:54:41;3.58;;;2.90;;
21837;SDS011;11081;45.946;6.140;2023-05-13T11:57:18;3.35;;;2.47;;
21837;SDS011;11081;45.946;6.140;2023-05-13T11:59:48;7.68;;;2.45;;
21837;SDS011;11081;45.946;6.140;2023-05-13T12:02:18;3.63;;;2.25;;
21837;SDS011;11081;45.946;6.140;2023-05-13T12:04:49;3.13;;;2.10;;
21837;SDS011;11081;45.946;6.140;2023-05-13T12:07:19;1.60;;;1.50;;
21837;SDS011;11081;45.946;6.140;2023-05-13T12:09:48;3.92;;;2.50;;
21837;SDS011;11081;45.946;6.140;2023-05-13T12:12:16;4.70;;;3.47;;
21837;SDS011;11081;45.946;6.140;2023-05-13T12:14:46;3.38;;;2.40;;
21837;SDS011;11081;45.946;6.140;2023-05-13T12:17:16;2.50;;;2.17;;
21837;SDS011;11081;45.946;6.140;2023-05-13T12:22:48;3.20;;;1.90;;
21837;SDS011;11081;45.946;6.140;2023-05-13T12:28:17;2.55;;;1.67;;
21837;SDS011;11081;45.946;6.140;2023-05-13T12:30:50;3.97;;;1.50;;
21837;SDS011;11081;45.946;6.140;2023-05-13T12:33:19;1.70;;;1.20;;
21837;SDS011;11081;45.946;6.140;2023-05-13T12:35:51;1.98;;;1.20;;
21837;SDS011;11081;45.946;6.140;2023-05-13T12:38:20;2.17;;;1.90;;
21837;SDS011;11081;45.946;6.140;2023-05-13T12:40:50;5.22;;;1.90;;
21837;SDS011;11081;45.946;6.140;2023-05-13T12:43:20;3.80;;;2.30;;
21837;SDS011;11081;45.946;6.140;2023-05-13T12:45:51;4.78;;;2.85;;
21837;SDS011;11081;45.946;6.140;2023-05-13T12:48:24;3.17;;;2.78;;
21837;SDS011;11081;45.946;6.140;2023-05-13T12:50:54;3.60;;;2.60;;
21837;SDS011;11081;45.946;6.140;2023-05-13T12:53:24;5.50;;;3.60;;
21837;SDS011;11081;45.946;6.140;2023-05-13T12:55:52;3.60;;;2.53;;
21837;SDS011;11081;45.946;6.140;2023-05-13T12:58:19;2.95;;;2.65;;
21837;SDS011;11081;45.946;6.140;2023-05-13T13:00:47;4.07;;;2.75;;
21837;SDS011;11081;45.946;6.140;2023-05-13T13:03:16;4.70;;;2.72;;
21837;SDS011;11081;45.946;6.140;2023-05-13T13:05:46;8.07;;;2.95;;
21837;SDS011;11081;45.946;6.140;2023-05-13T13:08:15;4.63;;;3.78;;
21837;SDS011;11081;45.946;6.140;2023-05-13T13:10:43;4.63;;;3.25;;
21837;SDS011;11081;45.946;6.140;2023-05-13T13:13:11;4.10;;;2.78;;
21837;SDS011;11081;45.946;6.140;2023-05-13T13:15:39;3.53;;;2.15;;
21837;SDS011;11081;45.946;6.140;2023-05-13T13:18:08;2.92;;;2.40;;
21837;SDS011;11081;45.946;6.140;2023-05-13T13:20:36;2.55;;;1.60;;
21837;SDS011;11081;45.946;6.140;2023-05-13T13:23:04;2.67;;;1.85;;
21837;SDS011;11081;45.946;6.140;2023-05-13T13:25:33;2.45;;;1.52;;
21837;SDS011;11081;45.946;6.140;2023-05-13T13:28:01;2.05;;;1.63;;
21837;SDS011;11081;45.946;6.140;2023-05-13T13:30:30;5.28;;;2.00;;
21837;SDS011;11081;45.946;6.140;2023-05-13T13:32:58;1.88;;;1.60;;
21837;SDS011;11081;45.946;6.140;2023-05-13T13:35:26;4.93;;;1.92;;
21837;SDS011;11081;45.946;6.140;2023-05-13T13:37:54;2.78;;;1.65;;
21837;SDS011;11081;45.946;6.140;2023-05-13T13:40:22;2.03;;;1.77;;
21837;SDS011;11081;45.946;6.140;2023-05-13T13:42:51;2.90;;;1.50;;
21837;SDS011;11081;45.946;6.140;2023-05-13T13:45:19;3.22;;;1.20;;
21837;SDS011;11081;45.946;6.140;2023-05-13T13:47:49;1.20;;;1.10;;
21837;SDS011;11081;45.946;6.140;2023-05-13T13:50:17;3.83;;;1.00;;
21837;SDS011;11081;45.946;6.140;2023-05-13T13:52:45;5.18;;;1.10;;
21837;SDS011;11081;45.946;6.140;2023-05-13T13:55:13;3.17;;;1.23;;
21837;SDS011;11081;45.946;6.140;2023-05-13T13:57:41;1.50;;;0.90;;
21837;SDS011;11081;45.946;6.140;2023-05-13T14:00:11;2.92;;;1.00;;
21837;SDS011;11081;45.946;6.140;2023-05-13T14:02:40;2.72;;;1.23;;
21837;SDS011;11081;45.946;6.140;2023-05-13T14:05:09;3.33;;;1.10;;
21837;SDS011;11081;45.946;6.140;2023-05-13T14:07:38;2.22;;;1.27;;
21837;SDS011;11081;45.946;6.140;2023-05-13T14:10:07;2.35;;;0.90;;
21837;SDS011;11081;45.946;6.140;2023-05-13T14:12:36;2.83;;;1.00;;
21837;SDS011;11081;45.946;6.140;2023-05-13T14:15:05;5.07;;;1.15;;
21837;SDS011;11081;45.946;6.140;2023-05-13T14:17:35;4.78;;;1.10;;
21837;SDS011;11081;45.946;6.140;2023-05-13T14:20:03;1.25;;;0.95;;
21837;SDS011;11081;45.946;6.140;2023-05-13T14:22:32;1.35;;;1.17;;
21837;SDS011;11081;45.946;6.140;2023-05-13T14:25:00;4.00;;;1.15;;
21837;SDS011;11081;45.946;6.140;2023-05-13T14:27:28;1.45;;;1.00;;
21837;SDS011;11081;45.946;6.140;2023-05-13T14:29:58;0.80;;;0.80;;
21837;SDS011;11081;45.946;6.140;2023-05-13T14:32:26;3.22;;;0.90;;
21837;SDS011;11081;45.946;6.140;2023-05-13T14:34:55;1.48;;;1.10;;
21837;SDS011;11081;45.946;6.140;2023-05-13T14:37:23;1.00;;;0.77;;
21837;SDS011;11081;45.946;6.140;2023-05-13T14:39:51;1.23;;;1.02;;
21837;SDS011;11081;45.946;6.140;2023-05-13T14:42:19;2.85;;;1.38;;
21837;SDS011;11081;45.946;6.140;2023-05-13T14:44:47;1.17;;;1.00;;
21837;SDS011;11081;45.946;6.140;2023-05-13T14:47:15;1.02;;;0.85;;
21837;SDS011;11081;45.946;6.140;2023-05-13T14:49:43;1.30;;;1.08;;
21837;SDS011;11081;45.946;6.140;2023-05-13T14:52:12;1.33;;;1.00;;
21837;SDS011;11081;45.946;6.140;2023-05-13T14:54:40;2.92;;;1.13;;
21837;SDS011;11081;45.946;6.140;2023-05-13T14:57:08;2.88;;;1.15;;
21837;SDS011;11081;45.946;6.140;2023-05-13T14:59:37;3.50;;;1.38;;
21837;SDS011;11081;45.946;6.140;2023-05-13T15:02:05;3.05;;;1.02;;
21837;SDS011;11081;45.946;6.140;2023-05-13T15:04:33;2.05;;;1.20;;
21837;SDS011;11081;45.946;6.140;2023-05-13T15:07:01;1.27;;;1.05;;
21837;SDS011;11081;45.946;6.140;2023-05-13T15:09:31;2.83;;;1.05;;
21837;SDS011;11081;45.946;6.140;2023-05-13T15:11:59;1.88;;;1.00;;